createdAt,value
2023-12-15T00:00:27.173Z,605.00
2023-12-15T00:01:27.205Z,602.00
2023-12-15T00:02:27.337Z,603.00
2023-12-15T00:03:27.351Z,602.00
2023-12-15T00:04:27.391Z,604.00
2023-12-15T00:05:27.531Z,606.00
2023-12-15T00:06:27.590Z,604.00
2023-12-15T00:07:27.631Z,607.00
2023-12-15T00:08:27.706Z,606.00
2023-12-15T00:09:27.716Z,603.00
2023-12-15T00:10:27.774Z,608.00
2023-12-15T00:11:27.921Z,604.00
2023-12-15T00:12:27.894Z,604.00
2023-12-15T00:13:27.964Z,605.00
2023-12-15T00:14:28.039Z,607.00
2023-12-15T00:15:28.092Z,607.00
2023-12-15T00:16:28.170Z,604.00
2023-12-15T00:17:28.233Z,601.00
2023-12-15T00:18:28.329Z,602.00
2023-12-15T00:19:28.310Z,604.00
2023-12-15T00:20:28.398Z,607.00
2023-12-15T00:21:28.441Z,606.00
2023-12-15T00:22:28.530Z,605.00
2023-12-15T00:23:28.587Z,604.00
2023-12-15T00:24:28.627Z,602.00
2023-12-15T00:25:28.694Z,602.00
2023-12-15T00:26:28.817Z,603.00
2023-12-15T00:27:28.820Z,605.00
2023-12-15T00:28:28.868Z,605.00
2023-12-15T00:29:28.963Z,607.00
2023-12-15T00:30:29.003Z,602.00
2023-12-15T00:31:29.036Z,604.00
2023-12-15T00:32:29.197Z,605.00
2023-12-15T00:33:29.246Z,607.00
2023-12-15T00:34:29.227Z,605.00
2023-12-15T00:35:29.340Z,605.00
2023-12-15T00:36:29.346Z,607.00
2023-12-15T00:37:29.400Z,604.00
2023-12-15T00:38:29.457Z,604.00
2023-12-15T00:39:29.509Z,605.00
2023-12-15T00:40:29.582Z,604.00
2023-12-15T00:41:29.687Z,601.00
2023-12-15T00:42:29.673Z,602.00
2023-12-15T00:43:29.761Z,609.00
2023-12-15T00:44:29.905Z,604.00
2023-12-15T00:45:29.884Z,604.00
2023-12-15T00:46:29.938Z,607.00
2023-12-15T00:47:30.106Z,610.00
2023-12-15T00:48:30.177Z,605.00
2023-12-15T00:49:30.223Z,604.00
2023-12-15T00:50:30.359Z,605.00
2023-12-15T00:51:30.222Z,606.00
2023-12-15T00:52:30.293Z,605.00
2023-12-15T00:53:30.367Z,601.00
2023-12-15T00:54:30.408Z,604.00
2023-12-15T00:55:30.461Z,602.00
2023-12-15T00:56:30.631Z,604.00
2023-12-15T00:57:30.585Z,604.00
2023-12-15T00:58:30.627Z,602.00
2023-12-15T00:59:30.721Z,606.00
2023-12-15T01:00:30.776Z,605.00
2023-12-15T01:01:30.816Z,606.00
2023-12-15T01:02:30.913Z,605.00
2023-12-15T01:03:30.973Z,607.00
2023-12-15T01:04:31.027Z,604.00
2023-12-15T01:05:31.122Z,605.00
2023-12-15T01:06:31.139Z,603.00
2023-12-15T01:07:31.185Z,604.00
2023-12-15T01:08:31.317Z,605.00
2023-12-15T01:09:31.288Z,605.00
2023-12-15T01:10:31.371Z,605.00
2023-12-15T01:11:31.454Z,608.00
2023-12-15T01:12:31.482Z,605.00
2023-12-15T01:13:31.533Z,603.00
2023-12-15T01:14:31.623Z,603.00
2023-12-15T01:15:31.643Z,609.00
2023-12-15T01:16:31.689Z,603.00
2023-12-15T01:17:31.833Z,603.00
2023-12-15T01:18:31.871Z,602.00
2023-12-15T01:19:31.878Z,607.00
2023-12-15T01:20:31.925Z,607.00
2023-12-15T01:21:31.970Z,605.00
2023-12-15T01:22:32.014Z,601.00
2023-12-15T01:23:32.189Z,602.00
2023-12-15T01:24:32.140Z,604.00
2023-12-15T01:25:32.213Z,604.00
2023-12-15T01:26:32.291Z,606.00
2023-12-15T01:27:32.315Z,606.00
2023-12-15T01:28:32.363Z,606.00
2023-12-15T01:29:32.476Z,608.00
2023-12-15T01:30:32.500Z,606.00
2023-12-15T01:31:32.531Z,609.00
2023-12-15T01:32:32.730Z,605.00
2023-12-15T01:33:32.630Z,605.00
2023-12-15T01:34:32.681Z,608.00
2023-12-15T01:35:32.826Z,602.00
2023-12-15T01:36:32.814Z,602.00
2023-12-15T01:37:32.852Z,605.00
2023-12-15T01:38:32.923Z,608.00
2023-12-15T01:39:32.967Z,606.00
2023-12-15T01:40:33.023Z,605.00
2023-12-15T01:41:33.178Z,603.00
2023-12-15T01:42:33.126Z,602.00
2023-12-15T01:43:33.196Z,607.00
2023-12-15T01:44:33.316Z,606.00
2023-12-15T01:45:33.306Z,605.00
2023-12-15T01:46:33.364Z,604.00
2023-12-15T01:47:33.548Z,604.00
2023-12-15T01:48:33.549Z,606.00
2023-12-15T01:49:33.573Z,604.00
2023-12-15T01:50:33.664Z,603.00
2023-12-15T01:51:33.663Z,603.00
2023-12-15T01:52:33.727Z,608.00
2023-12-15T01:53:33.796Z,604.00
2023-12-15T01:54:33.821Z,605.00
2023-12-15T01:55:33.870Z,606.00
2023-12-15T01:56:33.952Z,607.00
2023-12-15T01:57:34.323Z,602.00
2023-12-15T01:58:34.059Z,605.00
2023-12-15T01:59:34.124Z,605.00
2023-12-15T02:00:34.222Z,607.00
2023-12-15T02:01:34.265Z,606.00
2023-12-15T02:02:34.308Z,602.00
2023-12-15T02:03:34.465Z,604.00
2023-12-15T02:04:34.398Z,605.00
2023-12-15T02:05:34.506Z,606.00
2023-12-15T02:06:34.488Z,605.00
2023-12-15T02:07:34.889Z,603.00
2023-12-15T02:08:34.630Z,609.00
2023-12-15T02:09:34.643Z,606.00
2023-12-15T02:10:34.690Z,606.00
2023-12-15T02:11:57.770Z,607.00
2023-12-15T02:12:34.990Z,607.00
2023-12-15T02:13:35.504Z,609.00
2023-12-15T02:14:34.780Z,610.00
2023-12-15T02:15:34.957Z,612.00
2023-12-15T02:16:34.747Z,611.00
2023-12-15T02:17:35.269Z,615.00
2023-12-15T02:18:35.056Z,612.00
2023-12-15T02:19:34.877Z,610.00
2023-12-15T02:20:34.950Z,611.00
2023-12-15T02:21:34.953Z,611.00
2023-12-15T02:22:35.028Z,612.00
2023-12-15T02:23:35.093Z,611.00
2023-12-15T02:24:35.148Z,603.00
2023-12-15T02:25:35.249Z,608.00
2023-12-15T02:26:35.279Z,607.00
2023-12-15T02:27:35.580Z,610.00
2023-12-15T02:28:35.370Z,610.00
2023-12-15T02:29:35.478Z,604.00
2023-12-15T02:30:35.526Z,609.00
2023-12-15T02:31:35.550Z,605.00
2023-12-15T02:32:35.807Z,610.00
2023-12-15T02:33:35.833Z,607.00
2023-12-15T02:34:35.840Z,600.00
2023-12-15T02:35:35.866Z,605.00
2023-12-15T02:36:35.866Z,605.00
2023-12-15T02:37:36.229Z,605.00
2023-12-15T02:38:35.977Z,606.00
2023-12-15T02:39:36.053Z,604.00
2023-12-15T02:40:36.116Z,600.00
2023-12-15T02:41:36.180Z,603.00
2023-12-15T02:42:36.273Z,606.00
2023-12-15T02:43:36.280Z,607.00
2023-12-15T02:44:36.387Z,607.00
2023-12-15T02:45:36.402Z,608.00
2023-12-15T02:46:36.470Z,603.00
2023-12-15T02:47:37.552Z,604.00
2023-12-15T02:48:36.714Z,606.00
2023-12-15T02:49:36.644Z,605.00
2023-12-15T02:50:36.732Z,608.00
2023-12-15T02:51:36.771Z,607.00
2023-12-15T02:52:36.809Z,608.00
2023-12-15T02:53:36.858Z,605.00
2023-12-15T02:54:36.920Z,609.00
2023-12-15T02:55:36.973Z,606.00
2023-12-15T02:56:37.018Z,607.00
2023-12-15T02:57:37.310Z,601.00
2023-12-15T02:58:37.214Z,602.00
2023-12-15T02:59:37.240Z,606.00
2023-12-15T03:00:37.303Z,604.00
2023-12-15T03:01:37.342Z,608.00
2023-12-15T03:02:37.403Z,607.00
2023-12-15T03:03:37.484Z,605.00
2023-12-15T03:04:37.490Z,606.00
2023-12-15T03:05:37.646Z,606.00
2023-12-15T03:06:37.626Z,606.00
2023-12-15T03:07:37.879Z,605.00
2023-12-15T03:08:37.710Z,605.00
2023-12-15T03:09:37.755Z,609.00
2023-12-15T03:10:37.801Z,609.00
2023-12-15T03:11:37.861Z,610.00
2023-12-15T03:12:37.935Z,605.00
2023-12-15T03:13:38.002Z,609.00
2023-12-15T03:14:38.025Z,603.00
2023-12-15T03:15:38.082Z,601.00
2023-12-15T03:16:38.141Z,605.00
2023-12-15T03:17:38.603Z,602.00
2023-12-15T03:18:38.256Z,601.00
2023-12-15T03:19:38.326Z,603.00
2023-12-15T03:20:38.391Z,604.00
2023-12-15T03:21:38.451Z,603.00
2023-12-15T03:22:38.486Z,603.00
2023-12-15T03:23:38.569Z,606.00
2023-12-15T03:24:38.618Z,604.00
2023-12-15T03:25:38.688Z,607.00
2023-12-15T03:26:38.773Z,605.00
2023-12-15T03:27:38.990Z,605.00
2023-12-15T03:28:38.858Z,606.00
2023-12-15T03:29:38.930Z,606.00
2023-12-15T03:30:38.965Z,605.00
2023-12-15T03:31:39.015Z,605.00
2023-12-15T03:32:39.124Z,608.00
2023-12-15T03:33:39.189Z,607.00
2023-12-15T03:34:39.164Z,602.00
2023-12-15T03:35:39.205Z,601.00
2023-12-15T03:36:39.272Z,605.00
2023-12-15T03:37:39.501Z,607.00
2023-12-15T03:38:39.382Z,602.00
2023-12-15T03:39:39.419Z,607.00
2023-12-15T03:40:39.489Z,606.00
2023-12-15T03:41:39.521Z,608.00
2023-12-15T03:42:39.578Z,606.00
2023-12-15T03:43:39.653Z,605.00
2023-12-15T03:44:39.687Z,607.00
2023-12-15T03:45:39.734Z,604.00
2023-12-15T03:46:39.796Z,602.00
2023-12-15T03:47:40.360Z,604.00
2023-12-15T03:48:39.988Z,605.00
2023-12-15T03:49:39.965Z,604.00
2023-12-15T03:50:40.036Z,605.00
2023-12-15T03:51:40.074Z,604.00
2023-12-15T03:52:40.168Z,605.00
2023-12-15T03:53:40.333Z,606.00
2023-12-15T03:54:40.267Z,610.00
2023-12-15T03:55:40.331Z,607.00
2023-12-15T03:56:40.390Z,607.00
2023-12-15T03:57:40.434Z,609.00
2023-12-15T03:58:40.494Z,604.00
2023-12-15T03:59:40.615Z,606.00
2023-12-15T04:00:40.628Z,605.00
2023-12-15T04:01:40.709Z,604.00
2023-12-15T04:02:40.773Z,602.00
2023-12-15T04:03:40.777Z,602.00
2023-12-15T04:04:40.879Z,602.00
2023-12-15T04:05:40.935Z,600.00
2023-12-15T04:06:40.972Z,603.00
2023-12-15T04:07:41.029Z,606.00
2023-12-15T04:08:41.107Z,604.00
2023-12-15T04:09:41.141Z,607.00
2023-12-15T04:10:41.201Z,606.00
2023-12-15T04:11:41.246Z,608.00
2023-12-15T04:12:41.321Z,603.00
2023-12-15T04:13:41.363Z,610.00
2023-12-15T04:14:41.497Z,607.00
2023-12-15T04:15:41.470Z,600.00
2023-12-15T04:16:41.508Z,606.00
2023-12-15T04:17:41.898Z,604.00
2023-12-15T04:18:41.749Z,604.00
2023-12-15T04:19:41.892Z,602.00
2023-12-15T04:20:41.778Z,607.00
2023-12-15T04:21:41.767Z,601.00
2023-12-15T04:22:41.830Z,604.00
2023-12-15T04:23:41.887Z,603.00
2023-12-15T04:24:41.927Z,603.00
2023-12-15T04:25:41.974Z,604.00
2023-12-15T04:26:42.017Z,604.00
2023-12-15T04:27:42.356Z,604.00
2023-12-15T04:28:42.110Z,607.00
2023-12-15T04:29:42.137Z,607.00
2023-12-15T04:30:42.226Z,604.00
2023-12-15T04:31:42.230Z,604.00
2023-12-15T04:32:42.337Z,603.00
2023-12-15T04:33:42.327Z,606.00
2023-12-15T04:34:42.375Z,603.00
2023-12-15T04:35:42.419Z,605.00
2023-12-15T04:36:42.461Z,603.00
2023-12-15T04:37:50.114Z,600.00
2023-12-15T04:38:50.115Z,600.00
2023-12-15T04:39:50.136Z,600.00
2023-12-15T04:40:50.101Z,600.00
2023-12-15T04:41:50.126Z,600.00
2023-12-15T04:42:50.117Z,606.00
2023-12-15T04:43:50.104Z,604.00
2023-12-15T04:44:50.126Z,600.00
2023-12-15T04:45:50.146Z,606.00
2023-12-15T04:46:50.113Z,608.00
2023-12-15T04:47:50.158Z,603.00
2023-12-15T04:48:50.214Z,602.00
2023-12-15T04:49:50.134Z,606.00
2023-12-15T04:50:50.131Z,601.00
2023-12-15T04:51:50.144Z,603.00
2023-12-15T04:52:50.165Z,604.00
2023-12-15T04:53:50.163Z,601.00
2023-12-15T04:54:50.149Z,600.00
2023-12-15T04:55:50.133Z,602.00
2023-12-15T04:56:50.143Z,604.00
2023-12-15T04:57:50.345Z,600.00
2023-12-15T04:58:50.132Z,601.00
2023-12-15T04:59:50.148Z,600.00
2023-12-15T05:00:50.206Z,605.00
2023-12-15T05:01:50.156Z,600.00
2023-12-15T05:02:50.139Z,601.00
2023-12-15T05:03:50.184Z,601.00
2023-12-15T05:04:50.169Z,600.00
2023-12-15T05:05:50.264Z,604.00
2023-12-15T05:06:50.164Z,602.00
2023-12-15T05:07:50.151Z,604.00
2023-12-15T05:08:50.169Z,604.00
2023-12-15T05:09:50.213Z,604.00
2023-12-15T05:10:51.596Z,605.00
2023-12-15T05:11:50.171Z,601.00
2023-12-15T05:12:50.169Z,605.00
2023-12-15T05:13:50.197Z,605.00
2023-12-15T05:14:50.167Z,606.00
2023-12-15T05:15:50.181Z,602.00
2023-12-15T05:16:50.193Z,602.00
2023-12-15T05:17:50.433Z,601.00
2023-12-15T05:18:50.245Z,603.00
2023-12-15T05:19:50.168Z,601.00
2023-12-15T05:20:50.176Z,602.00
2023-12-15T05:21:50.179Z,602.00
2023-12-15T05:22:50.185Z,603.00
2023-12-15T05:23:50.185Z,602.00
2023-12-15T05:24:50.176Z,604.00
2023-12-15T05:25:50.174Z,604.00
2023-12-15T05:26:50.188Z,605.00
2023-12-15T05:27:50.254Z,602.00
2023-12-15T05:28:50.284Z,606.00
2023-12-15T05:29:50.386Z,605.00
2023-12-15T05:30:50.356Z,601.00
2023-12-15T05:31:50.387Z,602.00
2023-12-15T05:32:50.517Z,604.00
2023-12-15T05:33:50.466Z,602.00
2023-12-15T05:34:50.453Z,602.00
2023-12-15T05:35:50.465Z,603.00
2023-12-15T05:36:50.509Z,604.00
2023-12-15T05:37:50.544Z,602.00
2023-12-15T05:38:50.565Z,604.00
2023-12-15T05:39:50.595Z,600.00
2023-12-15T05:40:50.622Z,609.00
2023-12-15T05:41:51.372Z,609.00
2023-12-15T05:42:50.708Z,601.00
2023-12-15T05:43:50.747Z,607.00
2023-12-15T05:44:50.829Z,602.00
2023-12-15T05:45:50.904Z,603.00
2023-12-15T05:46:50.859Z,607.00
2023-12-15T05:47:50.999Z,606.00
2023-12-15T05:48:51.049Z,603.00
2023-12-15T05:49:51.047Z,604.00
2023-12-15T05:50:50.995Z,601.00
2023-12-15T05:51:51.011Z,603.00
2023-12-15T05:52:51.047Z,606.00
2023-12-15T05:53:57.494Z,602.00
2023-12-15T05:54:52.077Z,602.00
2023-12-15T05:55:51.085Z,603.00
2023-12-15T05:56:51.093Z,603.00
2023-12-15T05:57:51.102Z,606.00
2023-12-15T05:58:51.097Z,605.00
2023-12-15T05:59:51.073Z,605.00
2023-12-15T06:00:51.098Z,604.00
2023-12-15T06:01:51.084Z,604.00
2023-12-15T06:02:51.107Z,603.00
2023-12-15T06:03:51.096Z,603.00
2023-12-15T06:04:51.092Z,601.00
2023-12-15T06:05:51.137Z,602.00
2023-12-15T06:06:51.094Z,607.00
2023-12-15T06:07:51.078Z,602.00
2023-12-15T06:08:51.085Z,603.00
2023-12-15T06:09:51.079Z,603.00
2023-12-15T06:10:51.127Z,604.00
2023-12-15T06:11:51.147Z,601.00
2023-12-15T06:12:51.157Z,601.00
2023-12-15T06:13:51.211Z,603.00
2023-12-15T06:14:51.240Z,603.00
2023-12-15T06:15:51.312Z,601.00
2023-12-15T06:16:51.894Z,603.00
2023-12-15T06:17:51.431Z,604.00
2023-12-15T06:18:51.452Z,603.00
2023-12-15T06:19:51.437Z,600.00
2023-12-15T06:20:51.495Z,603.00
2023-12-15T06:21:51.503Z,606.00
2023-12-15T06:22:53.916Z,603.00
2023-12-15T06:23:51.547Z,604.00
2023-12-15T06:24:51.585Z,607.00
2023-12-15T06:25:51.534Z,601.00
2023-12-15T06:26:51.541Z,604.00
2023-12-15T06:27:51.540Z,605.00
2023-12-15T06:28:51.617Z,603.00
2023-12-15T06:29:51.557Z,603.00
2023-12-15T06:30:51.628Z,611.00
2023-12-15T06:31:51.544Z,606.00
2023-12-15T06:32:51.625Z,603.00
2023-12-15T06:33:51.604Z,603.00
2023-12-15T06:34:51.634Z,607.00
2023-12-15T06:35:51.589Z,603.00
2023-12-15T06:36:51.576Z,605.00
2023-12-15T06:37:51.565Z,615.00
2023-12-15T06:38:51.568Z,612.00
2023-12-15T06:39:51.636Z,608.00
2023-12-15T06:40:51.559Z,610.00
2023-12-15T06:41:51.908Z,609.00
2023-12-15T06:42:51.565Z,615.00
2023-12-15T06:43:51.582Z,616.00
2023-12-15T06:44:51.599Z,615.00
2023-12-15T06:45:51.577Z,614.00
2023-12-15T06:46:51.649Z,617.00
2023-12-15T06:47:51.776Z,624.00
2023-12-15T06:48:51.656Z,624.00
2023-12-15T06:49:51.591Z,624.00
2023-12-15T06:50:51.604Z,631.00
2023-12-15T06:51:51.622Z,633.00
2023-12-15T06:52:51.612Z,633.00
2023-12-15T06:53:51.702Z,638.00
2023-12-15T06:54:51.595Z,641.00
2023-12-15T06:55:51.596Z,642.00
2023-12-15T06:56:51.658Z,642.00
2023-12-15T06:57:54.737Z,649.00
2023-12-15T06:58:51.653Z,655.00
2023-12-15T06:59:51.662Z,661.00
2023-12-15T07:00:51.804Z,660.00
2023-12-15T07:01:51.661Z,664.00
2023-12-15T07:02:51.683Z,663.00
2023-12-15T07:03:51.873Z,670.00
2023-12-15T07:04:51.669Z,675.00
2023-12-15T07:05:51.781Z,669.00
2023-12-15T07:06:51.649Z,671.00
2023-12-15T07:07:51.673Z,667.00
2023-12-15T07:08:51.753Z,674.00
2023-12-15T07:09:51.691Z,678.00
2023-12-15T07:10:51.648Z,696.00
2023-12-15T07:11:51.700Z,712.00
2023-12-15T07:12:51.643Z,731.00
2023-12-15T07:13:51.624Z,744.00
2023-12-15T07:14:51.659Z,750.00
2023-12-15T07:15:51.657Z,754.00
2023-12-15T07:16:51.626Z,762.00
2023-12-15T07:17:51.788Z,766.00
2023-12-15T07:18:51.730Z,759.00
2023-12-15T07:19:51.633Z,751.00
2023-12-15T07:20:51.648Z,763.00
2023-12-15T07:21:51.675Z,762.00
2023-12-15T07:22:51.637Z,764.00
2023-12-15T07:23:51.997Z,759.00
2023-12-15T07:24:51.639Z,750.00
2023-12-15T07:25:51.643Z,745.00
2023-12-15T07:26:51.704Z,742.00
2023-12-15T07:27:51.647Z,738.00
2023-12-15T07:28:51.659Z,737.00
2023-12-15T07:29:51.640Z,732.00
2023-12-15T07:30:51.765Z,725.00
2023-12-15T07:31:51.696Z,730.00
2023-12-15T07:32:51.786Z,725.00
2023-12-15T07:33:51.743Z,721.00
2023-12-15T07:34:51.652Z,710.00
2023-12-15T07:35:51.835Z,714.00
2023-12-15T07:36:51.657Z,701.00
2023-12-15T07:37:51.652Z,737.00
2023-12-15T07:38:51.670Z,750.00
2023-12-15T07:39:51.664Z,770.00
2023-12-15T07:40:51.668Z,764.00
2023-12-15T07:41:51.708Z,762.00
2023-12-15T07:42:51.668Z,756.00
2023-12-15T07:43:51.675Z,756.00
2023-12-15T07:44:51.661Z,757.00
2023-12-15T07:45:51.712Z,757.00
2023-12-15T07:46:51.678Z,759.00
2023-12-15T07:47:51.823Z,747.00
2023-12-15T07:48:51.795Z,756.00
2023-12-15T07:49:51.681Z,767.00
2023-12-15T07:50:51.753Z,766.00
2023-12-15T07:51:51.712Z,781.00
2023-12-15T07:52:51.684Z,782.00
2023-12-15T07:53:52.019Z,809.00
2023-12-15T07:54:51.698Z,825.00
2023-12-15T07:55:51.677Z,839.00
2023-12-15T07:56:51.724Z,838.00
2023-12-15T07:57:51.685Z,836.00
2023-12-15T07:58:51.941Z,843.00
2023-12-15T07:59:52.319Z,843.00
2023-12-15T08:00:51.731Z,830.00
2023-12-15T08:01:51.690Z,830.00
2023-12-15T08:02:51.734Z,822.00
2023-12-15T08:03:51.966Z,827.00
2023-12-15T08:04:54.462Z,827.00
2023-12-15T08:05:51.854Z,825.00
2023-12-15T08:06:51.816Z,819.00
2023-12-15T08:07:51.786Z,837.00
2023-12-15T08:08:51.807Z,848.00
2023-12-15T08:09:51.824Z,852.00
2023-12-15T08:10:51.795Z,835.00
2023-12-15T08:11:51.840Z,841.00
2023-12-15T08:12:51.825Z,851.00
2023-12-15T08:13:51.840Z,840.00
2023-12-15T08:14:51.818Z,839.00
2023-12-15T08:15:51.854Z,844.00
2023-12-15T08:16:51.822Z,847.00
2023-12-15T08:17:52.072Z,860.00
2023-12-15T08:18:52.013Z,862.00
2023-12-15T08:19:51.829Z,852.00
2023-12-15T08:20:51.837Z,870.00
2023-12-15T08:21:51.807Z,878.00
2023-12-15T08:22:51.834Z,879.00
2023-12-15T08:23:51.840Z,900.00
2023-12-15T08:24:51.814Z,891.00
2023-12-15T08:25:51.889Z,898.00
2023-12-15T08:26:51.814Z,884.00
2023-12-15T08:27:51.856Z,886.00
2023-12-15T08:28:51.828Z,878.00
2023-12-15T08:29:51.819Z,883.00
2023-12-15T08:30:51.899Z,871.00
2023-12-15T08:31:51.856Z,865.00
2023-12-15T08:32:51.937Z,868.00
2023-12-15T08:33:52.112Z,862.00
2023-12-15T08:34:51.823Z,856.00
2023-12-15T08:35:51.868Z,872.00
2023-12-15T08:36:51.881Z,876.00
2023-12-15T08:37:51.888Z,871.00
2023-12-15T08:38:51.970Z,870.00
2023-12-15T08:39:51.838Z,874.00
2023-12-15T08:40:51.864Z,872.00
2023-12-15T08:41:51.842Z,868.00
2023-12-15T08:42:52.474Z,868.00
2023-12-15T08:43:51.972Z,867.00
2023-12-15T08:44:51.875Z,864.00
2023-12-15T08:45:51.942Z,860.00
2023-12-15T08:46:51.910Z,863.00
2023-12-15T08:47:51.947Z,863.00
2023-12-15T08:48:52.124Z,860.00
2023-12-15T08:49:51.859Z,861.00
2023-12-15T08:50:51.892Z,858.00
2023-12-15T08:51:51.858Z,851.00
2023-12-15T08:52:51.900Z,850.00
2023-12-15T08:53:52.057Z,858.00
2023-12-15T08:54:51.896Z,860.00
2023-12-15T08:55:51.897Z,857.00
2023-12-15T08:56:52.037Z,849.00
2023-12-15T08:57:51.922Z,850.00
2023-12-15T08:58:51.914Z,853.00
2023-12-15T08:59:51.861Z,845.00
2023-12-15T09:00:51.864Z,842.00
2023-12-15T09:01:51.937Z,849.00
2023-12-15T09:02:52.014Z,845.00
2023-12-15T09:03:52.057Z,841.00
2023-12-15T09:04:59.630Z,841.00
2023-12-15T09:06:16.292Z,841.00
2023-12-15T09:06:53.422Z,842.00
2023-12-15T09:07:52.089Z,841.00
2023-12-15T09:08:52.082Z,844.00
2023-12-15T09:09:51.996Z,839.00
2023-12-15T09:10:52.071Z,846.00
2023-12-15T09:11:52.038Z,847.00
2023-12-15T09:12:51.993Z,833.00
2023-12-15T09:13:52.031Z,844.00
2023-12-15T09:14:52.005Z,837.00
2023-12-15T09:15:52.107Z,836.00
2023-12-15T09:16:51.998Z,833.00
2023-12-15T09:17:52.521Z,829.00
2023-12-15T09:18:52.096Z,838.00
2023-12-15T09:19:52.024Z,830.00
2023-12-15T09:20:52.032Z,829.00
2023-12-15T09:21:52.058Z,828.00
2023-12-15T09:22:52.029Z,826.00
2023-12-15T09:23:52.023Z,827.00
2023-12-15T09:24:52.021Z,822.00
2023-12-15T09:25:52.026Z,820.00
2023-12-15T09:26:52.089Z,810.00
2023-12-15T09:27:52.159Z,765.00
2023-12-15T09:28:52.540Z,704.00
2023-12-15T09:29:52.207Z,665.00
2023-12-15T09:30:52.271Z,651.00
2023-12-15T09:31:52.243Z,636.00
2023-12-15T09:32:55.189Z,626.00
2023-12-15T09:33:52.582Z,617.00
2023-12-15T09:34:52.311Z,608.00
2023-12-15T09:35:52.316Z,601.00
2023-12-15T09:36:52.316Z,600.00
2023-12-15T09:37:52.925Z,600.00
2023-12-15T09:38:52.308Z,602.00
2023-12-15T09:39:52.316Z,600.00
2023-12-15T09:40:52.324Z,601.00
2023-12-15T09:41:52.309Z,600.00
2023-12-15T09:42:52.377Z,602.00
2023-12-15T09:43:52.492Z,602.00
2023-12-15T09:45:00.998Z,600.00
2023-12-15T09:45:53.330Z,600.00
2023-12-15T09:46:52.460Z,592.00
2023-12-15T09:47:52.496Z,588.00
2023-12-15T09:48:52.625Z,586.00
2023-12-15T09:49:52.337Z,584.00
2023-12-15T09:50:52.457Z,605.00
2023-12-15T09:51:52.382Z,602.00
2023-12-15T09:52:52.342Z,603.00
2023-12-15T09:53:52.496Z,602.00
2023-12-15T09:54:52.368Z,601.00
2023-12-15T09:55:52.513Z,605.00
2023-12-15T09:56:52.509Z,601.00
2023-12-15T09:57:52.539Z,603.00
2023-12-15T09:58:52.619Z,604.00
2023-12-15T09:59:52.666Z,604.00
2023-12-15T10:00:52.732Z,607.00
2023-12-15T10:01:52.744Z,609.00
2023-12-15T10:02:52.857Z,608.00
2023-12-15T10:03:52.865Z,613.00
2023-12-15T10:04:52.910Z,613.00
2023-12-15T10:05:52.979Z,615.00
2023-12-15T10:06:53.019Z,617.00
2023-12-15T10:07:53.089Z,617.00
2023-12-15T10:09:01.305Z,620.00
2023-12-15T10:09:54.544Z,620.00
2023-12-15T10:10:53.311Z,620.00
2023-12-15T10:11:53.117Z,624.00
2023-12-15T10:12:53.108Z,625.00
2023-12-15T10:13:53.126Z,629.00
2023-12-15T10:14:53.160Z,631.00
2023-12-15T10:15:53.142Z,629.00
2023-12-15T10:16:53.120Z,634.00
2023-12-15T10:17:53.199Z,634.00
2023-12-15T10:18:53.202Z,639.00
2023-12-15T10:19:53.156Z,639.00
2023-12-15T10:20:53.574Z,643.00
2023-12-15T10:21:53.195Z,643.00
2023-12-15T10:22:53.298Z,643.00
2023-12-15T10:23:53.314Z,649.00
2023-12-15T10:24:53.403Z,648.00
2023-12-15T10:25:53.370Z,652.00
2023-12-15T10:26:53.411Z,652.00
2023-12-15T10:27:53.470Z,655.00
2023-12-15T10:28:53.556Z,663.00
2023-12-15T10:29:54.090Z,663.00
2023-12-15T10:30:53.701Z,666.00
2023-12-15T10:31:53.654Z,668.00
2023-12-15T10:32:53.772Z,670.00
2023-12-15T10:33:54.101Z,690.00
2023-12-15T10:34:53.721Z,688.00
2023-12-15T10:35:53.764Z,693.00
2023-12-15T10:36:53.861Z,704.00
2023-12-15T10:37:53.812Z,719.00
2023-12-15T10:38:53.947Z,729.00
2023-12-15T10:39:53.874Z,728.00
2023-12-15T10:40:53.915Z,734.00
2023-12-15T10:41:53.945Z,751.00
2023-12-15T10:42:53.960Z,739.00
2023-12-15T10:43:53.990Z,748.00
2023-12-15T10:44:54.013Z,757.00
2023-12-15T10:45:54.021Z,747.00
2023-12-15T10:46:54.046Z,751.00
2023-12-15T10:47:54.354Z,763.00
2023-12-15T10:48:54.169Z,760.00
2023-12-15T10:49:54.164Z,767.00
2023-12-15T10:50:54.159Z,766.00
2023-12-15T10:51:54.205Z,769.00
2023-12-15T10:52:54.227Z,768.00
2023-12-15T10:53:54.267Z,778.00
2023-12-15T10:54:54.337Z,778.00
2023-12-15T10:55:54.412Z,780.00
2023-12-15T10:56:54.373Z,781.00
2023-12-15T10:57:54.441Z,770.00
2023-12-15T10:58:54.476Z,768.00
2023-12-15T10:59:54.544Z,777.00
2023-12-15T11:00:54.728Z,781.00
2023-12-15T11:01:54.747Z,773.00
2023-12-15T11:02:54.969Z,778.00
2023-12-15T11:03:54.766Z,776.00
2023-12-15T11:04:54.846Z,781.00
2023-12-15T11:05:55.014Z,776.00
2023-12-15T11:06:54.994Z,782.00
2023-12-15T11:07:55.069Z,769.00
2023-12-15T11:08:55.103Z,773.00
2023-12-15T11:09:55.149Z,761.00
2023-12-15T11:10:55.260Z,757.00
2023-12-15T11:11:55.306Z,763.00
2023-12-15T11:12:55.326Z,761.00
2023-12-15T11:13:55.393Z,764.00
2023-12-15T11:14:55.426Z,764.00
2023-12-15T11:15:55.451Z,760.00
2023-12-15T11:16:55.535Z,759.00
2023-12-15T11:17:55.809Z,755.00
2023-12-15T11:18:55.817Z,755.00
2023-12-15T11:19:55.653Z,752.00
2023-12-15T11:20:55.705Z,757.00
2023-12-15T11:21:55.776Z,754.00
2023-12-15T11:22:55.814Z,757.00
2023-12-15T11:23:56.121Z,756.00
2023-12-15T11:24:55.882Z,748.00
2023-12-15T11:25:55.925Z,751.00
2023-12-15T11:26:55.937Z,756.00
2023-12-15T11:27:55.942Z,748.00
2023-12-15T11:28:56.069Z,759.00
2023-12-15T11:29:55.979Z,752.00
2023-12-15T11:30:56.505Z,771.00
2023-12-15T11:31:56.077Z,764.00
2023-12-15T11:32:56.811Z,771.00
2023-12-15T11:33:56.224Z,768.00
2023-12-15T11:34:56.221Z,784.00
2023-12-15T11:35:56.298Z,799.00
2023-12-15T11:36:56.367Z,791.00
2023-12-15T11:37:56.557Z,801.00
2023-12-15T11:38:56.474Z,810.00
2023-12-15T11:39:56.555Z,816.00
2023-12-15T11:40:56.571Z,824.00
2023-12-15T11:41:56.639Z,830.00
2023-12-15T11:42:57.067Z,835.00
2023-12-15T11:43:56.726Z,850.00
2023-12-15T11:44:56.795Z,856.00
2023-12-15T11:45:56.807Z,868.00
2023-12-15T11:46:56.869Z,875.00
2023-12-15T11:47:57.226Z,884.00
2023-12-15T11:48:57.024Z,788.00
2023-12-15T11:49:57.021Z,796.00
2023-12-15T11:50:57.068Z,844.00
2023-12-15T11:51:57.140Z,822.00
2023-12-15T11:52:57.630Z,808.00
2023-12-15T11:53:57.568Z,789.00
2023-12-15T11:54:57.296Z,786.00
2023-12-15T11:55:57.397Z,786.00
2023-12-15T11:56:57.405Z,776.00
2023-12-15T11:57:57.466Z,764.00
2023-12-15T11:58:57.527Z,762.00
2023-12-15T11:59:57.587Z,759.00
2023-12-15T12:00:57.713Z,760.00
2023-12-15T12:01:57.684Z,764.00
2023-12-15T12:02:57.730Z,777.00
2023-12-15T12:03:57.799Z,777.00
2023-12-15T12:04:57.839Z,771.00
2023-12-15T12:05:58.039Z,782.00
2023-12-15T12:06:58.042Z,787.00
2023-12-15T12:07:57.965Z,790.00
2023-12-15T12:08:58.006Z,794.00
2023-12-15T12:09:58.036Z,791.00
2023-12-15T12:10:58.069Z,797.00
2023-12-15T12:11:58.102Z,809.00
2023-12-15T12:12:58.105Z,827.00
2023-12-15T12:13:58.158Z,835.00
2023-12-15T12:14:58.176Z,837.00
2023-12-15T12:15:58.214Z,832.00
2023-12-15T12:16:58.264Z,838.00
2023-12-15T12:17:58.356Z,834.00
2023-12-15T12:18:58.473Z,840.00
2023-12-15T12:20:00.732Z,839.00
2023-12-15T12:20:58.641Z,833.00
2023-12-15T12:21:58.625Z,835.00
2023-12-15T12:22:58.665Z,839.00
2023-12-15T12:23:59.126Z,832.00
2023-12-15T12:24:58.876Z,835.00
2023-12-15T12:25:58.839Z,839.00
2023-12-15T12:26:58.907Z,835.00
2023-12-15T12:27:58.975Z,836.00
2023-12-15T12:29:01.750Z,844.00